Pagrindinis puslapis
METAR-TAF:

METAR-TAF

Oro uostai :

Alta, Norvegija

platuma: 69-59N, ilguma: 023-22E, Aukštis: 0 m

Dabartinis oras

Ataskaita buvo paskelbta 39 minutes, ne 05:50 UTC
Vėjas 4 kt iš Šiaurės Rytų, svyruoja nuo Šiaurės/Šiaurės Rytų ir Rytų/Pietryčių
Temperatūra -1°C
Drėgmė 74%
Slėgis 1005 hPa
Matomumas 10 km arba daugiau
nėra debesų žemiau 1500 m ir nėra kamuolinių lietaus debesų

METAR: ENAT 020550Z 05004KT 020V110 CAVOK M01/M05 Q1005 RMK WIND 700FT 04012KT

Laikas: 07:29 (06:29 UTC)

Prognozė

Ataskaita buvo paskelbta 1 valandą ir 29 minutes, ne 05:00 UTC
Prognozė galioja nuo 02 metu 06 UTC su 02 metu 15 UTC
Vėjas 8 kt iš Rytų/Šiaurės Rytų
Matomumas 10 km arba daugiau
Išsisklaidę debesys ne aukštis 4000 ft

TAF: ENAT 020500Z 0206/0215 06008KT 9999 SCT040

Orai ataskaitas ir orų prognozės (METAR, TAF).

turimą stotys yra geltonos ir raudonos taškus žemėlapyje.

Perkelti pele per norėdami pamatyti stoties vardą.

Tada spustelėkite, norėdami matyti oro stebėjimo ir prognozės.

Norėdami pakeisti žemėlapį: spustelėkite ant žalios mygtukų su juodo kryžiaus žemyn,; žalią mygtuką su brūkšneliu, jei norite nutolinti; arba žalių rodyklių gretimoms žemėlapius.


METAR-TAF: